createdAt,value
2018-09-30T00:01:39.314Z,2.90
2018-09-30T00:04:07.722Z,2.27
2018-09-30T00:06:36.078Z,2.93
2018-09-30T00:09:06.299Z,2.50
2018-09-30T00:11:34.663Z,2.40
2018-09-30T00:14:03.058Z,2.80
2018-09-30T00:16:31.423Z,2.30
2018-09-30T00:18:59.846Z,2.70
2018-09-30T00:21:28.202Z,1.60
2018-09-30T00:24:02.023Z,2.33
2018-09-30T00:27:06.066Z,2.37
2018-09-30T00:29:34.497Z,2.20
2018-09-30T00:32:02.859Z,2.37
2018-09-30T00:34:31.238Z,2.50
2018-09-30T00:37:00.438Z,2.80
2018-09-30T00:39:28.961Z,2.63
2018-09-30T00:41:57.339Z,2.47
2018-09-30T00:44:25.727Z,2.30
2018-09-30T00:46:54.494Z,2.33
2018-09-30T00:49:22.874Z,2.37
2018-09-30T00:51:51.234Z,2.33
2018-09-30T00:54:19.622Z,1.33
2018-09-30T00:56:47.981Z,2.60
2018-09-30T00:59:16.366Z,2.07
2018-09-30T01:01:44.729Z,2.20
2018-09-30T01:04:13.114Z,1.70
2018-09-30T01:06:41.498Z,2.37
2018-09-30T01:09:12.187Z,2.00
2018-09-30T01:11:40.570Z,2.33
2018-09-30T01:14:09.046Z,2.00
2018-09-30T01:16:37.615Z,2.60
2018-09-30T01:19:06.173Z,2.57
2018-09-30T01:21:34.679Z,2.70
2018-09-30T01:24:03.183Z,1.90
2018-09-30T01:26:31.689Z,2.40
2018-09-30T01:29:00.359Z,2.60
2018-09-30T01:31:28.727Z,2.37
2018-09-30T01:33:57.414Z,2.20
2018-09-30T01:36:25.791Z,2.73
2018-09-30T01:38:54.192Z,2.43
2018-09-30T01:41:22.578Z,1.80
2018-09-30T01:43:50.966Z,3.83
2018-09-30T01:46:19.339Z,3.00
2018-09-30T01:48:47.731Z,2.97
2018-09-30T01:51:16.093Z,2.53
2018-09-30T01:53:44.483Z,2.23
2018-09-30T01:56:12.849Z,2.23
2018-09-30T01:58:41.242Z,2.43
2018-09-30T02:01:09.605Z,2.27
2018-09-30T02:03:37.995Z,2.03
2018-09-30T02:06:06.382Z,2.93
2018-09-30T02:08:35.166Z,2.67
2018-09-30T02:11:03.557Z,2.20
2018-09-30T02:13:31.921Z,2.10
2018-09-30T02:16:00.323Z,2.30
2018-09-30T02:18:28.694Z,2.63
2018-09-30T02:20:57.079Z,2.13
2018-09-30T02:23:25.457Z,2.50
2018-09-30T02:25:54.001Z,2.47
2018-09-30T02:28:22.391Z,1.80
2018-09-30T02:30:50.818Z,2.10
2018-09-30T02:33:19.191Z,3.07
2018-09-30T02:35:47.579Z,2.13
2018-09-30T02:38:15.938Z,2.90
2018-09-30T02:40:44.328Z,2.20
2018-09-30T02:43:12.693Z,2.03
2018-09-30T02:45:41.073Z,2.40
2018-09-30T02:48:09.443Z,2.13
2018-09-30T02:50:37.838Z,2.20
2018-09-30T02:53:08.005Z,2.30
2018-09-30T02:55:37.120Z,2.17
2018-09-30T02:58:05.546Z,1.80
2018-09-30T03:00:34.183Z,2.60
2018-09-30T03:03:03.036Z,1.83
2018-09-30T03:05:31.655Z,2.60
2018-09-30T03:09:03.217Z,2.57
2018-09-30T03:11:31.603Z,2.40
2018-09-30T03:14:00.013Z,2.20
2018-09-30T03:16:28.408Z,2.20
2018-09-30T03:18:56.791Z,2.10
2018-09-30T03:21:25.213Z,2.67
2018-09-30T03:23:53.587Z,2.90
2018-09-30T03:26:21.973Z,2.57
2018-09-30T03:28:50.422Z,2.43
2018-09-30T03:31:18.815Z,2.20
2018-09-30T03:33:47.186Z,2.50
2018-09-30T03:36:15.574Z,3.10
2018-09-30T03:38:43.938Z,2.80
2018-09-30T03:41:12.326Z,2.77
2018-09-30T03:43:40.714Z,2.57
2018-09-30T03:46:09.063Z,2.20
2018-09-30T03:48:37.427Z,2.27
2018-09-30T03:51:05.823Z,3.13
2018-09-30T03:53:34.203Z,2.90
2018-09-30T03:56:02.591Z,2.90
2018-09-30T03:58:30.959Z,2.67
2018-09-30T04:00:59.496Z,3.17
2018-09-30T04:03:27.872Z,2.33
2018-09-30T04:05:56.263Z,2.70
2018-09-30T04:08:24.632Z,3.10
2018-09-30T04:10:53.018Z,2.90
2018-09-30T04:13:21.387Z,3.30
2018-09-30T04:15:49.769Z,2.70
2018-09-30T04:18:18.198Z,3.20
2018-09-30T04:20:46.588Z,2.97
2018-09-30T04:23:14.975Z,2.83
2018-09-30T04:25:43.386Z,3.50
2018-09-30T04:28:11.791Z,3.00
2018-09-30T04:30:40.263Z,3.40
2018-09-30T04:33:08.692Z,3.20
2018-09-30T04:35:37.062Z,3.40
2018-09-30T04:38:05.618Z,3.43
2018-09-30T04:40:34.011Z,3.10
2018-09-30T04:43:02.387Z,2.70
2018-09-30T04:45:30.779Z,2.87
2018-09-30T04:47:59.150Z,2.70
2018-09-30T04:50:27.520Z,2.93
2018-09-30T04:52:55.914Z,3.43
2018-09-30T04:55:24.439Z,2.93
2018-09-30T04:57:52.821Z,3.03
2018-09-30T05:00:21.191Z,3.50
2018-09-30T05:02:49.586Z,3.23
2018-09-30T05:05:17.958Z,3.23
2018-09-30T05:07:46.347Z,3.37
2018-09-30T05:10:14.710Z,3.40
2018-09-30T05:12:43.099Z,3.10
2018-09-30T05:15:11.471Z,3.57
2018-09-30T05:17:39.863Z,4.17
2018-09-30T05:20:08.243Z,6.23
2018-09-30T05:22:36.647Z,3.90
2018-09-30T05:25:05.063Z,4.37
2018-09-30T05:27:33.463Z,3.33
2018-09-30T05:30:01.851Z,3.80
2018-09-30T05:32:30.231Z,3.50
2018-09-30T05:34:58.596Z,3.50
2018-09-30T05:37:26.987Z,3.10
2018-09-30T05:39:55.351Z,3.83
2018-09-30T05:42:23.849Z,2.87
2018-09-30T05:44:52.239Z,3.03
2018-09-30T05:47:20.633Z,3.50
2018-09-30T05:49:49.082Z,4.20
2018-09-30T05:52:17.566Z,3.50
2018-09-30T05:54:45.940Z,3.97
2018-09-30T05:57:14.321Z,3.90
2018-09-30T05:59:42.700Z,4.10
2018-09-30T06:02:11.089Z,4.10
2018-09-30T06:04:39.472Z,4.10
2018-09-30T06:07:07.857Z,3.30
2018-09-30T06:09:36.309Z,3.40
2018-09-30T06:12:04.642Z,3.73
2018-09-30T06:14:33.015Z,4.00
2018-09-30T06:17:01.398Z,4.07
2018-09-30T06:19:29.814Z,4.37
2018-09-30T06:21:58.205Z,4.20
2018-09-30T06:24:26.580Z,3.90
2018-09-30T06:26:55.004Z,4.67
2018-09-30T06:29:23.398Z,3.93
2018-09-30T06:31:51.794Z,4.17
2018-09-30T06:34:20.195Z,3.13
2018-09-30T06:36:48.583Z,3.80
2018-09-30T06:39:16.983Z,2.80
2018-09-30T06:41:45.360Z,3.47
2018-09-30T06:44:13.780Z,3.60
2018-09-30T06:46:42.159Z,3.77
2018-09-30T06:49:10.549Z,3.07
2018-09-30T06:51:38.927Z,3.73
2018-09-30T06:54:07.342Z,4.10
2018-09-30T06:56:35.713Z,3.30
2018-09-30T06:59:04.251Z,3.60
2018-09-30T07:01:32.701Z,3.47
2018-09-30T07:04:01.123Z,3.20
2018-09-30T07:06:29.503Z,3.80
2018-09-30T07:08:57.895Z,2.80
2018-09-30T07:11:26.298Z,2.80
2018-09-30T07:13:54.707Z,3.40
2018-09-30T07:16:23.239Z,4.10
2018-09-30T07:18:51.756Z,3.27
2018-09-30T07:21:20.121Z,3.43
2018-09-30T07:23:48.511Z,2.60
2018-09-30T07:26:16.934Z,4.30
2018-09-30T07:28:45.389Z,3.60
2018-09-30T07:31:13.754Z,3.40
2018-09-30T07:33:42.178Z,3.50
2018-09-30T07:36:10.567Z,3.20
2018-09-30T07:38:38.958Z,3.60
2018-09-30T07:41:07.327Z,3.70
2018-09-30T07:43:35.732Z,4.23
2018-09-30T07:46:04.102Z,3.57
2018-09-30T07:48:32.485Z,3.17
2018-09-30T07:51:00.855Z,3.83
2018-09-30T07:53:29.259Z,3.17
2018-09-30T07:55:57.698Z,4.70
2018-09-30T07:58:26.095Z,3.70
2018-09-30T08:00:54.471Z,4.30
2018-09-30T08:03:22.865Z,3.90
2018-09-30T08:05:51.613Z,4.40
2018-09-30T08:08:20.003Z,3.70
2018-09-30T08:10:48.395Z,3.47
2018-09-30T08:13:16.791Z,3.70
2018-09-30T08:15:45.171Z,3.50
2018-09-30T08:18:13.544Z,3.90
2018-09-30T08:20:41.970Z,3.37
2018-09-30T08:23:10.342Z,3.80
2018-09-30T08:25:38.734Z,3.87
2018-09-30T08:28:07.342Z,3.20
2018-09-30T08:30:35.738Z,3.50
2018-09-30T08:33:04.167Z,3.13
2018-09-30T08:35:32.661Z,3.10
2018-09-30T08:38:06.364Z,3.53
2018-09-30T08:40:40.207Z,3.60
2018-09-30T08:43:08.615Z,3.63
2018-09-30T08:45:37.035Z,3.40
2018-09-30T08:48:05.413Z,4.00
2018-09-30T08:50:33.938Z,3.30
2018-09-30T08:53:02.304Z,4.23
2018-09-30T08:55:30.735Z,3.90
2018-09-30T08:57:59.123Z,4.13
2018-09-30T09:00:27.523Z,3.50
2018-09-30T09:02:55.910Z,3.60
2018-09-30T09:05:24.344Z,3.53
2018-09-30T09:07:52.709Z,3.47
2018-09-30T09:10:21.111Z,3.40
2018-09-30T09:12:49.490Z,3.27
2018-09-30T09:15:17.896Z,4.03
2018-09-30T09:17:46.314Z,3.13
2018-09-30T09:20:14.715Z,3.63
2018-09-30T09:22:43.120Z,3.67
2018-09-30T09:25:11.522Z,4.37
2018-09-30T09:27:39.906Z,4.57
2018-09-30T09:30:08.522Z,3.10
2018-09-30T09:32:37.789Z,4.03
2018-09-30T09:35:11.709Z,3.30
2018-09-30T09:37:40.031Z,3.40
2018-09-30T09:40:10.021Z,3.40
2018-09-30T09:42:38.596Z,4.23
2018-09-30T09:45:07.543Z,3.03
2018-09-30T09:47:35.937Z,3.13
2018-09-30T09:50:04.344Z,3.37
2018-09-30T09:52:32.781Z,2.67
2018-09-30T09:55:01.210Z,3.27
2018-09-30T09:57:29.587Z,3.30
2018-09-30T09:59:57.982Z,3.10
2018-09-30T10:02:26.399Z,3.00
2018-09-30T10:04:54.892Z,3.30
2018-09-30T10:07:23.318Z,2.80
2018-09-30T10:09:51.718Z,3.03
2018-09-30T10:12:20.128Z,3.10
2018-09-30T10:14:48.533Z,3.13
2018-09-30T10:17:17.017Z,2.93
2018-09-30T10:19:45.432Z,3.03
2018-09-30T10:22:13.811Z,4.00
2018-09-30T10:24:42.192Z,2.43
2018-09-30T10:27:10.581Z,2.90
2018-09-30T10:29:38.986Z,2.23
2018-09-30T10:32:07.535Z,2.60
2018-09-30T10:34:35.911Z,2.10
2018-09-30T10:37:04.324Z,3.40
2018-09-30T10:39:32.690Z,3.00
2018-09-30T10:42:01.102Z,2.33
2018-09-30T10:44:29.513Z,2.33
2018-09-30T10:46:57.910Z,3.00
2018-09-30T10:49:28.216Z,2.00
2018-09-30T10:51:56.615Z,2.20
2018-09-30T10:54:24.999Z,2.50
2018-09-30T10:56:53.446Z,2.80
2018-09-30T10:59:21.811Z,2.57
2018-09-30T11:01:50.211Z,3.53
2018-09-30T11:04:18.590Z,2.73
2018-09-30T11:06:46.982Z,2.37
2018-09-30T11:09:15.359Z,2.20
2018-09-30T11:11:43.749Z,2.07
2018-09-30T11:14:12.143Z,2.50
2018-09-30T11:16:40.551Z,2.50
2018-09-30T11:19:08.941Z,2.27
2018-09-30T11:21:37.347Z,2.07
2018-09-30T11:24:05.743Z,2.37
2018-09-30T11:26:34.147Z,2.17
2018-09-30T11:29:02.537Z,1.90
2018-09-30T11:31:30.936Z,1.90
2018-09-30T11:33:59.313Z,2.20
2018-09-30T11:36:27.714Z,2.00
2018-09-30T11:38:56.093Z,2.00
2018-09-30T11:41:24.513Z,2.57
2018-09-30T11:43:52.915Z,2.30
2018-09-30T11:46:21.318Z,2.20
2018-09-30T11:48:49.703Z,2.00
2018-09-30T11:51:18.098Z,2.00
2018-09-30T11:53:46.475Z,3.20
2018-09-30T11:56:14.861Z,2.37
2018-09-30T11:58:43.249Z,2.17
2018-09-30T12:01:11.676Z,2.80
2018-09-30T12:03:40.067Z,1.97
2018-09-30T12:06:08.468Z,2.20
2018-09-30T12:08:36.838Z,1.90
2018-09-30T12:11:05.237Z,2.17
2018-09-30T12:13:33.634Z,2.23
2018-09-30T12:16:02.011Z,2.50
2018-09-30T12:18:30.452Z,1.77
2018-09-30T12:20:58.794Z,2.50
2018-09-30T12:23:27.191Z,2.70
2018-09-30T12:25:55.651Z,3.30
2018-09-30T12:28:24.029Z,2.30
2018-09-30T12:30:52.397Z,2.07
2018-09-30T12:33:20.787Z,2.40
2018-09-30T12:35:49.164Z,1.83
2018-09-30T12:38:17.551Z,1.80
2018-09-30T12:40:45.926Z,2.00
2018-09-30T12:43:14.347Z,1.80
2018-09-30T12:45:42.719Z,1.93
2018-09-30T12:48:11.114Z,2.50
2018-09-30T12:50:39.519Z,2.30
2018-09-30T12:53:07.910Z,2.50
2018-09-30T12:55:36.282Z,1.90
2018-09-30T12:58:04.767Z,1.87
2018-09-30T13:00:33.103Z,2.23
2018-09-30T13:03:01.504Z,2.10
2018-09-30T13:05:29.873Z,1.43
2018-09-30T13:07:58.277Z,1.70
2018-09-30T13:10:26.659Z,2.60
2018-09-30T13:12:56.604Z,1.90
2018-09-30T13:15:25.067Z,1.90
2018-09-30T13:17:53.487Z,2.03
2018-09-30T13:20:21.945Z,2.00
2018-09-30T13:22:50.343Z,2.10
2018-09-30T13:25:18.731Z,2.20
2018-09-30T13:27:47.135Z,2.83
2018-09-30T13:30:15.539Z,2.20
2018-09-30T13:32:43.939Z,1.87
2018-09-30T13:35:12.320Z,1.80
2018-09-30T13:37:40.715Z,1.87
2018-09-30T13:40:09.178Z,2.13
2018-09-30T13:42:37.524Z,2.20
2018-09-30T13:45:07.082Z,1.73
2018-09-30T13:47:35.515Z,1.40
2018-09-30T13:50:03.891Z,1.83
2018-09-30T13:52:32.295Z,1.93
2018-09-30T13:55:00.670Z,2.03
2018-09-30T13:57:29.067Z,1.70
2018-09-30T13:59:57.439Z,1.50
2018-09-30T14:02:26.066Z,1.90
2018-09-30T14:04:54.443Z,2.00
2018-09-30T14:07:22.820Z,4.60
2018-09-30T14:09:51.281Z,2.13
2018-09-30T14:12:19.651Z,1.77
2018-09-30T14:14:48.051Z,1.93
2018-09-30T14:17:16.428Z,1.73
2018-09-30T14:19:44.839Z,2.03
2018-09-30T14:22:13.220Z,2.30
2018-09-30T14:24:41.657Z,2.10
2018-09-30T14:27:10.139Z,2.20
2018-09-30T14:29:38.483Z,2.00
2018-09-30T14:32:07.024Z,2.07
2018-09-30T14:34:35.502Z,1.67
2018-09-30T14:37:03.881Z,1.67
2018-09-30T14:39:32.286Z,2.43
2018-09-30T14:42:00.686Z,2.03
2018-09-30T14:44:29.083Z,1.80
2018-09-30T14:46:57.484Z,2.00
2018-09-30T14:49:25.927Z,2.20
2018-09-30T14:51:54.305Z,2.17
2018-09-30T14:54:22.775Z,1.33
2018-09-30T14:56:51.146Z,1.90
2018-09-30T14:59:19.545Z,2.10
2018-09-30T15:01:47.916Z,1.60
2018-09-30T15:04:16.322Z,1.77
2018-09-30T15:06:44.693Z,2.37
2018-09-30T15:09:13.081Z,1.87
2018-09-30T15:11:41.558Z,2.20
2018-09-30T15:14:09.959Z,2.03
2018-09-30T15:16:38.369Z,1.43
2018-09-30T15:19:06.769Z,2.83
2018-09-30T15:21:35.161Z,1.70
2018-09-30T15:24:03.564Z,2.10
2018-09-30T15:26:31.929Z,2.13
2018-09-30T15:29:00.471Z,1.80
2018-09-30T15:31:28.849Z,2.40
2018-09-30T15:33:57.246Z,1.80
2018-09-30T15:36:25.617Z,2.00
2018-09-30T15:38:54.005Z,1.93
2018-09-30T15:41:22.391Z,1.77
2018-09-30T15:43:50.782Z,2.03
2018-09-30T15:46:19.178Z,2.20
2018-09-30T15:48:47.574Z,2.50
2018-09-30T15:51:15.957Z,2.60
2018-09-30T15:53:44.337Z,1.47
2018-09-30T15:56:12.731Z,1.90
2018-09-30T15:58:41.131Z,1.80
2018-09-30T16:01:09.513Z,1.60
2018-09-30T16:03:37.895Z,2.30
2018-09-30T16:06:06.337Z,2.60
2018-09-30T16:08:34.730Z,2.33
2018-09-30T16:11:03.145Z,2.23
2018-09-30T16:13:31.522Z,1.80
2018-09-30T16:15:59.934Z,5.60
2018-09-30T16:18:28.315Z,4.50
2018-09-30T16:20:56.720Z,5.27
2018-09-30T16:23:25.199Z,8.57
2018-09-30T16:25:53.601Z,4.37
2018-09-30T16:28:22.355Z,4.03
2018-09-30T16:30:50.771Z,3.53
2018-09-30T16:33:19.154Z,3.57
2018-09-30T16:35:47.559Z,3.33
2018-09-30T16:38:15.942Z,2.87
2018-09-30T16:40:44.349Z,3.17
2018-09-30T16:43:12.764Z,2.80
2018-09-30T16:45:41.248Z,3.70
2018-09-30T16:48:09.638Z,2.97
2018-09-30T16:50:38.107Z,2.90
2018-09-30T16:53:06.683Z,2.87
2018-09-30T16:55:35.074Z,3.70
2018-09-30T16:58:03.454Z,3.00
2018-09-30T17:00:31.891Z,2.50
2018-09-30T17:03:00.275Z,4.70
2018-09-30T17:05:28.682Z,5.47
2018-09-30T17:07:57.055Z,5.80
2018-09-30T17:10:25.463Z,5.37
2018-09-30T17:12:53.887Z,8.10
2018-09-30T17:15:22.502Z,12.10
2018-09-30T17:17:50.909Z,12.53
2018-09-30T17:20:19.317Z,15.90
2018-09-30T17:22:47.699Z,20.63
2018-09-30T17:25:16.240Z,19.70
2018-09-30T17:27:44.614Z,22.87
2018-09-30T17:30:13.043Z,16.97
2018-09-30T17:32:41.461Z,10.10
2018-09-30T17:35:09.865Z,7.97
2018-09-30T17:37:38.241Z,6.57
2018-09-30T17:40:06.675Z,5.07
2018-09-30T17:42:35.042Z,5.00
2018-09-30T17:45:03.420Z,6.07
2018-09-30T17:47:31.830Z,11.37
2018-09-30T17:50:00.205Z,8.97
2018-09-30T17:52:28.629Z,12.50
2018-09-30T17:54:57.020Z,5.47
2018-09-30T17:57:25.472Z,6.43
2018-09-30T17:59:53.895Z,5.20
2018-09-30T18:02:22.303Z,4.70
2018-09-30T18:04:50.687Z,4.90
2018-09-30T18:07:19.109Z,4.33
2018-09-30T18:09:47.490Z,4.90
2018-09-30T18:12:15.891Z,5.03
2018-09-30T18:14:44.362Z,4.00
2018-09-30T18:17:12.775Z,4.60
2018-09-30T18:19:41.141Z,3.90
2018-09-30T18:22:09.547Z,4.97
2018-09-30T18:24:37.927Z,6.93
2018-09-30T18:27:06.335Z,6.60
2018-09-30T18:29:34.736Z,5.50
2018-09-30T18:32:03.143Z,5.53
2018-09-30T18:34:31.537Z,4.80
2018-09-30T18:36:59.939Z,6.53
2018-09-30T18:39:28.303Z,5.20
2018-09-30T18:41:56.702Z,5.40
2018-09-30T18:44:25.075Z,5.50
2018-09-30T18:46:53.512Z,5.60
2018-09-30T18:49:21.882Z,5.43
2018-09-30T18:51:50.283Z,6.40
2018-09-30T18:54:18.657Z,5.43
2018-09-30T18:56:47.064Z,5.73
2018-09-30T18:59:15.447Z,5.30
2018-09-30T19:01:43.851Z,6.40
2018-09-30T19:04:12.297Z,6.60
2018-09-30T19:06:40.694Z,5.60
2018-09-30T19:09:09.782Z,6.97
2018-09-30T19:11:38.186Z,9.17
2018-09-30T19:14:06.846Z,9.80
2018-09-30T19:16:35.567Z,9.00
2018-09-30T19:19:04.276Z,8.60
2018-09-30T19:21:32.634Z,8.20
2018-09-30T19:24:01.012Z,8.50
2018-09-30T19:26:29.418Z,10.07
2018-09-30T19:28:57.850Z,8.80
2018-09-30T19:31:26.312Z,9.57
2018-09-30T19:33:54.685Z,8.67
2018-09-30T19:36:23.092Z,9.83
2018-09-30T19:38:51.502Z,8.87
2018-09-30T19:41:19.875Z,8.10
2018-09-30T19:43:48.270Z,8.27
2018-09-30T19:46:16.635Z,7.80
2018-09-30T19:48:45.143Z,8.90
2018-09-30T19:51:13.502Z,12.60
2018-09-30T19:53:41.910Z,9.63
2018-09-30T19:56:10.308Z,11.37
2018-09-30T19:58:38.701Z,11.13
2018-09-30T20:01:07.493Z,11.90
2018-09-30T20:03:36.658Z,10.07
2018-09-30T20:06:05.037Z,8.93
2018-09-30T20:08:33.447Z,8.77
2018-09-30T20:11:01.831Z,8.10
2018-09-30T20:13:30.289Z,8.20
2018-09-30T20:15:58.657Z,6.83
2018-09-30T20:18:27.061Z,6.33
2018-09-30T20:20:55.469Z,5.60
2018-09-30T20:23:23.858Z,4.97
2018-09-30T20:25:52.227Z,5.00
2018-09-30T20:28:20.679Z,4.63
2018-09-30T20:30:49.141Z,4.00
2018-09-30T20:33:17.541Z,4.13
2018-09-30T20:35:45.906Z,4.20
2018-09-30T20:38:14.307Z,4.90
2018-09-30T20:40:43.106Z,4.07
2018-09-30T20:43:11.498Z,3.53
2018-09-30T20:45:40.269Z,4.00
2018-09-30T20:48:09.286Z,3.93
2018-09-30T20:50:37.671Z,3.20
2018-09-30T20:53:06.155Z,3.97
2018-09-30T20:55:35.066Z,4.03
2018-09-30T20:58:03.631Z,3.63
2018-09-30T21:00:32.087Z,4.20
2018-09-30T21:03:00.695Z,3.17
2018-09-30T21:05:45.436Z,3.40
2018-09-30T21:08:13.948Z,3.60
2018-09-30T21:10:42.327Z,4.40
2018-09-30T21:13:10.727Z,3.50
2018-09-30T21:15:39.100Z,4.30
2018-09-30T21:18:07.486Z,3.67
2018-09-30T21:20:35.859Z,4.43
2018-09-30T21:23:04.266Z,3.93
2018-09-30T21:25:32.639Z,3.70
2018-09-30T21:28:01.038Z,4.13
2018-09-30T21:30:29.430Z,4.63
2018-09-30T21:32:57.829Z,3.93
2018-09-30T21:35:26.280Z,3.60
2018-09-30T21:37:54.643Z,4.70
2018-09-30T21:40:23.030Z,3.57
2018-09-30T21:42:51.402Z,3.97
2018-09-30T21:45:19.797Z,6.33
2018-09-30T21:47:48.162Z,6.10
2018-09-30T21:50:17.096Z,6.20
2018-09-30T21:52:45.463Z,5.90
2018-09-30T21:55:13.852Z,5.90
2018-09-30T21:57:42.227Z,6.17
2018-09-30T22:00:10.635Z,5.40
2018-09-30T22:02:39.011Z,5.60
2018-09-30T22:05:07.435Z,4.27
2018-09-30T22:07:35.802Z,4.97
2018-09-30T22:10:04.223Z,5.13
2018-09-30T22:12:32.599Z,5.47
2018-09-30T22:15:01.018Z,5.73
2018-09-30T22:17:29.394Z,4.97
2018-09-30T22:19:57.787Z,5.03
2018-09-30T22:22:26.179Z,5.37
2018-09-30T22:24:54.576Z,5.10
2018-09-30T22:27:22.953Z,4.83
2018-09-30T22:29:51.375Z,4.80
2018-09-30T22:32:19.742Z,4.63
2018-09-30T22:34:48.135Z,5.57
2018-09-30T22:37:16.528Z,4.57
2018-09-30T22:39:44.968Z,4.70
2018-09-30T22:42:13.334Z,5.10
2018-09-30T22:44:41.739Z,4.30
2018-09-30T22:47:10.106Z,4.27
2018-09-30T22:49:38.629Z,5.10
2018-09-30T22:52:06.999Z,3.87
2018-09-30T22:54:35.405Z,4.87
2018-09-30T22:57:03.791Z,4.50
2018-09-30T22:59:32.183Z,4.10
2018-09-30T23:02:00.558Z,4.33
2018-09-30T23:04:28.963Z,4.20
2018-09-30T23:06:57.334Z,4.60
2018-09-30T23:09:25.975Z,4.23
2018-09-30T23:11:54.374Z,3.30
2018-09-30T23:14:22.761Z,4.13
2018-09-30T23:16:51.135Z,4.10
2018-09-30T23:19:19.526Z,3.70
2018-09-30T23:21:47.919Z,5.07
2018-09-30T23:24:16.330Z,4.43
2018-09-30T23:26:44.695Z,4.90
2018-09-30T23:29:13.503Z,4.40
2018-09-30T23:31:42.312Z,5.80
2018-09-30T23:34:10.752Z,4.40
2018-09-30T23:36:39.147Z,4.63
2018-09-30T23:39:09.575Z,4.03
2018-09-30T23:41:37.966Z,3.80
2018-09-30T23:44:06.330Z,3.67
2018-09-30T23:46:34.844Z,3.63
2018-09-30T23:49:03.209Z,4.37
2018-09-30T23:51:31.603Z,4.20
2018-09-30T23:53:59.970Z,3.73
2018-09-30T23:56:28.370Z,3.87
2018-09-30T23:58:56.738Z,3.97
